sensor_id;sensor_type;location;lat;lon;timestamp;temperature;humidity
59660;DHT22;45534;52.690;6.268;2023-11-19T00:00:31;12.00;99.90
59660;DHT22;45534;52.690;6.268;2023-11-19T00:02:57;12.00;99.90
59660;DHT22;45534;52.690;6.268;2023-11-19T00:05:22;12.10;99.90
59660;DHT22;45534;52.690;6.268;2023-11-19T00:07:48;12.10;99.90
59660;DHT22;45534;52.690;6.268;2023-11-19T00:10:15;12.10;99.90
59660;DHT22;45534;52.690;6.268;2023-11-19T00:12:46;12.10;99.90
59660;DHT22;45534;52.690;6.268;2023-11-19T00:15:13;12.10;99.90
59660;DHT22;45534;52.690;6.268;2023-11-19T00:17:44;12.10;99.90
59660;DHT22;45534;52.690;6.268;2023-11-19T00:20:11;12.20;99.90
59660;DHT22;45534;52.690;6.268;2023-11-19T00:22:37;12.20;99.90
59660;DHT22;45534;52.690;6.268;2023-11-19T00:25:04;12.20;99.90
59660;DHT22;45534;52.690;6.268;2023-11-19T00:27:29;12.20;99.90
59660;DHT22;45534;52.690;6.268;2023-11-19T00:29:56;12.20;99.90
59660;DHT22;45534;52.690;6.268;2023-11-19T00:32:22;12.20;99.90
59660;DHT22;45534;52.690;6.268;2023-11-19T00:34:48;12.20;99.90
59660;DHT22;45534;52.690;6.268;2023-11-19T00:37:14;12.30;99.90
59660;DHT22;45534;52.690;6.268;2023-11-19T00:39:41;12.30;99.90
59660;DHT22;45534;52.690;6.268;2023-11-19T00:42:07;12.30;99.90
59660;DHT22;45534;52.690;6.268;2023-11-19T00:44:33;12.30;99.90
59660;DHT22;45534;52.690;6.268;2023-11-19T00:46:58;12.30;99.90
59660;DHT22;45534;52.690;6.268;2023-11-19T00:49:25;12.30;99.90
59660;DHT22;45534;52.690;6.268;2023-11-19T00:51:51;12.30;99.90
59660;DHT22;45534;52.690;6.268;2023-11-19T00:54:17;12.30;99.90
59660;DHT22;45534;52.690;6.268;2023-11-19T00:56:42;12.30;99.90
59660;DHT22;45534;52.690;6.268;2023-11-19T00:59:08;12.30;99.90
59660;DHT22;45534;52.690;6.268;2023-11-19T01:01:34;12.30;99.90
59660;DHT22;45534;52.690;6.268;2023-11-19T01:03:59;12.30;99.90
59660;DHT22;45534;52.690;6.268;2023-11-19T01:06:31;12.30;99.90
59660;DHT22;45534;52.690;6.268;2023-11-19T01:08:58;12.30;99.90
59660;DHT22;45534;52.690;6.268;2023-11-19T01:11:24;12.30;99.90
59660;DHT22;45534;52.690;6.268;2023-11-19T01:13:50;12.30;99.90
59660;DHT22;45534;52.690;6.268;2023-11-19T01:16:16;12.30;99.90
59660;DHT22;45534;52.690;6.268;2023-11-19T01:18:42;12.30;99.90
59660;DHT22;45534;52.690;6.268;2023-11-19T01:21:08;12.30;99.90
59660;DHT22;45534;52.690;6.268;2023-11-19T01:23:34;12.30;99.90
59660;DHT22;45534;52.690;6.268;2023-11-19T01:26:00;12.30;99.90
59660;DHT22;45534;52.690;6.268;2023-11-19T01:28:26;12.30;99.90
59660;DHT22;45534;52.690;6.268;2023-11-19T01:30:51;12.40;99.90
59660;DHT22;45534;52.690;6.268;2023-11-19T01:33:17;12.30;99.90
59660;DHT22;45534;52.690;6.268;2023-11-19T01:35:43;12.40;99.90
59660;DHT22;45534;52.690;6.268;2023-11-19T01:38:09;12.40;99.90
59660;DHT22;45534;52.690;6.268;2023-11-19T01:40:35;12.30;99.90
59660;DHT22;45534;52.690;6.268;2023-11-19T01:43:05;12.30;99.90
59660;DHT22;45534;52.690;6.268;2023-11-19T01:45:31;12.30;99.90
59660;DHT22;45534;52.690;6.268;2023-11-19T01:47:59;12.30;99.90
59660;DHT22;45534;52.690;6.268;2023-11-19T01:50:26;12.30;99.90
59660;DHT22;45534;52.690;6.268;2023-11-19T01:52:55;12.30;99.90
59660;DHT22;45534;52.690;6.268;2023-11-19T01:55:24;12.30;99.90
59660;DHT22;45534;52.690;6.268;2023-11-19T01:57:51;12.20;99.90
59660;DHT22;45534;52.690;6.268;2023-11-19T02:00:19;12.30;99.90
59660;DHT22;45534;52.690;6.268;2023-11-19T02:02:46;12.20;99.90
59660;DHT22;45534;52.690;6.268;2023-11-19T02:05:13;12.20;99.90
59660;DHT22;45534;52.690;6.268;2023-11-19T02:07:39;12.20;99.90
59660;DHT22;45534;52.690;6.268;2023-11-19T02:10:06;12.20;99.90
59660;DHT22;45534;52.690;6.268;2023-11-19T02:12:37;12.20;99.90
59660;DHT22;45534;52.690;6.268;2023-11-19T02:15:03;12.20;99.90
59660;DHT22;45534;52.690;6.268;2023-11-19T02:17:30;12.30;99.90
59660;DHT22;45534;52.690;6.268;2023-11-19T02:20:00;12.20;99.90
59660;DHT22;45534;52.690;6.268;2023-11-19T02:22:26;12.20;99.90
59660;DHT22;45534;52.690;6.268;2023-11-19T02:24:55;12.20;99.90
59660;DHT22;45534;52.690;6.268;2023-11-19T02:27:51;12.20;99.90
59660;DHT22;45534;52.690;6.268;2023-11-19T02:30:21;12.20;99.90
59660;DHT22;45534;52.690;6.268;2023-11-19T02:32:52;12.10;99.90
59660;DHT22;45534;52.690;6.268;2023-11-19T02:35:19;12.20;99.90
59660;DHT22;45534;52.690;6.268;2023-11-19T02:37:44;12.20;99.90
59660;DHT22;45534;52.690;6.268;2023-11-19T02:40:10;12.20;99.90
59660;DHT22;45534;52.690;6.268;2023-11-19T02:42:36;12.20;99.90
59660;DHT22;45534;52.690;6.268;2023-11-19T02:45:02;12.20;99.90
59660;DHT22;45534;52.690;6.268;2023-11-19T02:47:33;12.10;99.90
59660;DHT22;45534;52.690;6.268;2023-11-19T02:49:59;12.20;99.90
59660;DHT22;45534;52.690;6.268;2023-11-19T02:52:25;12.20;99.90
59660;DHT22;45534;52.690;6.268;2023-11-19T02:54:51;12.20;99.90
59660;DHT22;45534;52.690;6.268;2023-11-19T02:57:17;12.20;99.90
59660;DHT22;45534;52.690;6.268;2023-11-19T02:59:45;12.20;99.90
59660;DHT22;45534;52.690;6.268;2023-11-19T03:02:11;12.20;99.90
59660;DHT22;45534;52.690;6.268;2023-11-19T03:04:37;12.20;99.90
59660;DHT22;45534;52.690;6.268;2023-11-19T03:07:08;12.20;99.90
59660;DHT22;45534;52.690;6.268;2023-11-19T03:09:33;12.30;99.90
59660;DHT22;45534;52.690;6.268;2023-11-19T03:12:01;12.30;99.90
59660;DHT22;45534;52.690;6.268;2023-11-19T03:14:27;12.30;99.90
59660;DHT22;45534;52.690;6.268;2023-11-19T03:16:53;12.30;99.90
59660;DHT22;45534;52.690;6.268;2023-11-19T03:19:18;12.30;99.90
59660;DHT22;45534;52.690;6.268;2023-11-19T03:21:44;12.20;99.90
59660;DHT22;45534;52.690;6.268;2023-11-19T03:24:12;12.30;99.90
59660;DHT22;45534;52.690;6.268;2023-11-19T03:26:38;12.30;99.90
59660;DHT22;45534;52.690;6.268;2023-11-19T03:29:04;12.40;99.90
59660;DHT22;45534;52.690;6.268;2023-11-19T03:31:30;12.40;99.90
59660;DHT22;45534;52.690;6.268;2023-11-19T03:33:56;12.40;99.90
59660;DHT22;45534;52.690;6.268;2023-11-19T03:36:22;12.40;99.90
59660;DHT22;45534;52.690;6.268;2023-11-19T03:38:48;12.40;99.90
59660;DHT22;45534;52.690;6.268;2023-11-19T03:41:14;12.30;99.90
59660;DHT22;45534;52.690;6.268;2023-11-19T03:43:41;12.20;99.90
59660;DHT22;45534;52.690;6.268;2023-11-19T03:46:19;12.20;99.90
59660;DHT22;45534;52.690;6.268;2023-11-19T03:48:47;12.20;99.90
59660;DHT22;45534;52.690;6.268;2023-11-19T03:51:12;12.30;99.90
59660;DHT22;45534;52.690;6.268;2023-11-19T03:53:44;12.30;99.90
59660;DHT22;45534;52.690;6.268;2023-11-19T03:56:10;12.30;99.90
59660;DHT22;45534;52.690;6.268;2023-11-19T03:58:37;12.30;99.90
59660;DHT22;45534;52.690;6.268;2023-11-19T04:01:10;12.20;99.90
59660;DHT22;45534;52.690;6.268;2023-11-19T04:03:36;12.20;99.90
59660;DHT22;45534;52.690;6.268;2023-11-19T04:06:02;12.20;99.90
59660;DHT22;45534;52.690;6.268;2023-11-19T04:08:28;12.20;99.90
59660;DHT22;45534;52.690;6.268;2023-11-19T04:10:53;12.20;99.90
59660;DHT22;45534;52.690;6.268;2023-11-19T04:13:19;12.10;99.90
59660;DHT22;45534;52.690;6.268;2023-11-19T04:15:45;12.10;99.90
59660;DHT22;45534;52.690;6.268;2023-11-19T04:18:11;12.10;99.90
59660;DHT22;45534;52.690;6.268;2023-11-19T04:20:37;12.00;99.90
59660;DHT22;45534;52.690;6.268;2023-11-19T04:23:03;12.00;99.90
59660;DHT22;45534;52.690;6.268;2023-11-19T04:25:28;11.90;99.90
59660;DHT22;45534;52.690;6.268;2023-11-19T04:27:54;11.90;99.90
59660;DHT22;45534;52.690;6.268;2023-11-19T04:30:20;11.90;99.90
59660;DHT22;45534;52.690;6.268;2023-11-19T04:32:45;11.90;99.90
59660;DHT22;45534;52.690;6.268;2023-11-19T04:35:11;11.90;99.90
59660;DHT22;45534;52.690;6.268;2023-11-19T04:37:37;11.90;99.90
59660;DHT22;45534;52.690;6.268;2023-11-19T04:40:03;11.80;99.90
59660;DHT22;45534;52.690;6.268;2023-11-19T04:42:29;11.90;99.90
59660;DHT22;45534;52.690;6.268;2023-11-19T04:44:55;11.80;99.90
59660;DHT22;45534;52.690;6.268;2023-11-19T04:47:21;11.80;99.90
59660;DHT22;45534;52.690;6.268;2023-11-19T04:49:46;11.80;99.90
59660;DHT22;45534;52.690;6.268;2023-11-19T04:52:12;11.80;99.90
59660;DHT22;45534;52.690;6.268;2023-11-19T04:54:42;11.80;99.90
59660;DHT22;45534;52.690;6.268;2023-11-19T04:57:09;11.80;99.90
59660;DHT22;45534;52.690;6.268;2023-11-19T04:59:38;11.80;99.90
59660;DHT22;45534;52.690;6.268;2023-11-19T05:02:04;11.80;99.90
59660;DHT22;45534;52.690;6.268;2023-11-19T05:04:31;11.90;99.90
59660;DHT22;45534;52.690;6.268;2023-11-19T05:06:56;11.90;99.90
59660;DHT22;45534;52.690;6.268;2023-11-19T05:09:23;11.90;99.90
59660;DHT22;45534;52.690;6.268;2023-11-19T05:11:49;11.90;99.90
59660;DHT22;45534;52.690;6.268;2023-11-19T05:14:15;11.90;99.90
59660;DHT22;45534;52.690;6.268;2023-11-19T05:16:41;11.90;99.90
59660;DHT22;45534;52.690;6.268;2023-11-19T05:19:06;11.90;99.90
59660;DHT22;45534;52.690;6.268;2023-11-19T05:21:32;12.00;99.90
59660;DHT22;45534;52.690;6.268;2023-11-19T05:23:59;12.00;99.90
59660;DHT22;45534;52.690;6.268;2023-11-19T05:26:24;11.90;99.90
59660;DHT22;45534;52.690;6.268;2023-11-19T05:28:50;12.00;99.90
59660;DHT22;45534;52.690;6.268;2023-11-19T05:31:17;12.00;99.90
59660;DHT22;45534;52.690;6.268;2023-11-19T05:33:44;11.90;99.90
59660;DHT22;45534;52.690;6.268;2023-11-19T05:36:11;11.90;99.90
59660;DHT22;45534;52.690;6.268;2023-11-19T05:38:38;11.90;99.90
59660;DHT22;45534;52.690;6.268;2023-11-19T05:41:04;11.90;99.90
59660;DHT22;45534;52.690;6.268;2023-11-19T05:43:30;11.80;99.90
59660;DHT22;45534;52.690;6.268;2023-11-19T05:45:56;11.80;99.90
59660;DHT22;45534;52.690;6.268;2023-11-19T05:48:22;11.80;99.90
59660;DHT22;45534;52.690;6.268;2023-11-19T05:50:48;11.80;99.90
59660;DHT22;45534;52.690;6.268;2023-11-19T05:53:15;11.80;99.90
59660;DHT22;45534;52.690;6.268;2023-11-19T05:55:41;11.80;99.90
59660;DHT22;45534;52.690;6.268;2023-11-19T05:58:26;11.80;99.90
59660;DHT22;45534;52.690;6.268;2023-11-19T06:00:54;11.70;99.90
59660;DHT22;45534;52.690;6.268;2023-11-19T06:03:20;11.70;99.90
59660;DHT22;45534;52.690;6.268;2023-11-19T06:05:47;11.60;99.90
59660;DHT22;45534;52.690;6.268;2023-11-19T06:08:13;11.60;99.90
59660;DHT22;45534;52.690;6.268;2023-11-19T06:10:40;11.60;99.90
59660;DHT22;45534;52.690;6.268;2023-11-19T06:13:06;11.50;99.90
59660;DHT22;45534;52.690;6.268;2023-11-19T06:15:33;11.50;99.90
59660;DHT22;45534;52.690;6.268;2023-11-19T06:17:59;11.50;99.90
59660;DHT22;45534;52.690;6.268;2023-11-19T06:20:26;11.50;99.90
59660;DHT22;45534;52.690;6.268;2023-11-19T06:22:54;11.50;99.90
59660;DHT22;45534;52.690;6.268;2023-11-19T06:25:20;11.50;99.90
59660;DHT22;45534;52.690;6.268;2023-11-19T06:27:46;11.50;99.90
59660;DHT22;45534;52.690;6.268;2023-11-19T06:30:12;11.60;99.90
59660;DHT22;45534;52.690;6.268;2023-11-19T06:32:37;11.60;99.90
59660;DHT22;45534;52.690;6.268;2023-11-19T06:35:03;11.60;99.90
59660;DHT22;45534;52.690;6.268;2023-11-19T06:37:32;11.60;99.90
59660;DHT22;45534;52.690;6.268;2023-11-19T06:39:57;11.60;99.90
59660;DHT22;45534;52.690;6.268;2023-11-19T06:42:23;11.60;99.90
59660;DHT22;45534;52.690;6.268;2023-11-19T06:44:49;11.60;99.90
59660;DHT22;45534;52.690;6.268;2023-11-19T06:47:14;11.60;99.90
59660;DHT22;45534;52.690;6.268;2023-11-19T06:49:43;11.60;99.90
59660;DHT22;45534;52.690;6.268;2023-11-19T06:52:09;11.60;99.90
59660;DHT22;45534;52.690;6.268;2023-11-19T06:54:34;11.60;99.90
59660;DHT22;45534;52.690;6.268;2023-11-19T06:57:00;11.50;99.90
59660;DHT22;45534;52.690;6.268;2023-11-19T06:59:25;11.50;99.90
59660;DHT22;45534;52.690;6.268;2023-11-19T07:01:51;11.50;99.90
59660;DHT22;45534;52.690;6.268;2023-11-19T07:04:17;11.50;99.90
59660;DHT22;45534;52.690;6.268;2023-11-19T07:06:42;11.50;99.90
59660;DHT22;45534;52.690;6.268;2023-11-19T07:09:08;11.50;99.90
59660;DHT22;45534;52.690;6.268;2023-11-19T07:11:39;11.50;99.90
59660;DHT22;45534;52.690;6.268;2023-11-19T07:14:05;11.50;99.90
59660;DHT22;45534;52.690;6.268;2023-11-19T07:16:35;11.50;99.90
59660;DHT22;45534;52.690;6.268;2023-11-19T07:19:03;11.50;99.90
59660;DHT22;45534;52.690;6.268;2023-11-19T07:21:29;11.40;99.90
59660;DHT22;45534;52.690;6.268;2023-11-19T07:23:57;11.40;99.90
59660;DHT22;45534;52.690;6.268;2023-11-19T07:26:23;11.40;99.90
59660;DHT22;45534;52.690;6.268;2023-11-19T07:28:49;11.40;99.90
59660;DHT22;45534;52.690;6.268;2023-11-19T07:31:16;11.40;99.90
59660;DHT22;45534;52.690;6.268;2023-11-19T07:33:45;11.40;99.90
59660;DHT22;45534;52.690;6.268;2023-11-19T07:36:11;11.40;99.90
59660;DHT22;45534;52.690;6.268;2023-11-19T07:38:37;11.30;99.90
59660;DHT22;45534;52.690;6.268;2023-11-19T07:41:04;11.40;99.90
59660;DHT22;45534;52.690;6.268;2023-11-19T07:43:31;11.40;99.90
59660;DHT22;45534;52.690;6.268;2023-11-19T07:45:56;11.40;99.90
59660;DHT22;45534;52.690;6.268;2023-11-19T07:48:25;11.40;99.90
59660;DHT22;45534;52.690;6.268;2023-11-19T07:50:52;11.40;99.90
59660;DHT22;45534;52.690;6.268;2023-11-19T07:53:18;11.40;99.90
59660;DHT22;45534;52.690;6.268;2023-11-19T07:55:43;11.40;99.90
59660;DHT22;45534;52.690;6.268;2023-11-19T07:58:10;11.40;99.90
59660;DHT22;45534;52.690;6.268;2023-11-19T08:00:36;11.40;99.90
59660;DHT22;45534;52.690;6.268;2023-11-19T08:03:03;11.50;99.90
59660;DHT22;45534;52.690;6.268;2023-11-19T08:05:30;11.50;99.90
59660;DHT22;45534;52.690;6.268;2023-11-19T08:07:56;11.50;99.90
59660;DHT22;45534;52.690;6.268;2023-11-19T08:10:22;11.60;99.90
59660;DHT22;45534;52.690;6.268;2023-11-19T08:12:48;11.60;99.90
59660;DHT22;45534;52.690;6.268;2023-11-19T08:15:14;11.60;99.90
59660;DHT22;45534;52.690;6.268;2023-11-19T08:17:41;11.60;99.90
59660;DHT22;45534;52.690;6.268;2023-11-19T08:20:09;11.60;99.90
59660;DHT22;45534;52.690;6.268;2023-11-19T08:22:37;11.50;99.90
59660;DHT22;45534;52.690;6.268;2023-11-19T08:25:06;11.50;99.90
59660;DHT22;45534;52.690;6.268;2023-11-19T08:27:33;11.40;99.90
59660;DHT22;45534;52.690;6.268;2023-11-19T08:29:58;11.40;99.90
59660;DHT22;45534;52.690;6.268;2023-11-19T08:32:27;11.40;99.90
59660;DHT22;45534;52.690;6.268;2023-11-19T08:34:53;11.40;99.90
59660;DHT22;45534;52.690;6.268;2023-11-19T08:37:19;11.40;99.90
59660;DHT22;45534;52.690;6.268;2023-11-19T08:39:50;11.40;99.90
59660;DHT22;45534;52.690;6.268;2023-11-19T08:42:19;11.50;99.90
59660;DHT22;45534;52.690;6.268;2023-11-19T08:44:49;11.50;99.90
59660;DHT22;45534;52.690;6.268;2023-11-19T08:47:16;11.50;99.90
59660;DHT22;45534;52.690;6.268;2023-11-19T08:49:44;11.60;99.90
59660;DHT22;45534;52.690;6.268;2023-11-19T08:52:10;11.60;99.90
59660;DHT22;45534;52.690;6.268;2023-11-19T08:54:36;11.60;99.90
59660;DHT22;45534;52.690;6.268;2023-11-19T08:57:03;11.70;99.90
59660;DHT22;45534;52.690;6.268;2023-11-19T08:59:29;11.70;99.90
59660;DHT22;45534;52.690;6.268;2023-11-19T09:01:55;11.70;99.90
59660;DHT22;45534;52.690;6.268;2023-11-19T09:04:21;11.70;99.90
59660;DHT22;45534;52.690;6.268;2023-11-19T09:06:48;11.70;99.90
59660;DHT22;45534;52.690;6.268;2023-11-19T09:09:14;11.80;99.90
59660;DHT22;45534;52.690;6.268;2023-11-19T09:11:40;11.80;99.90
59660;DHT22;45534;52.690;6.268;2023-11-19T09:14:06;11.80;99.90
59660;DHT22;45534;52.690;6.268;2023-11-19T09:16:32;11.90;99.90
59660;DHT22;45534;52.690;6.268;2023-11-19T09:18:58;11.90;99.90
59660;DHT22;45534;52.690;6.268;2023-11-19T09:21:25;11.90;99.90
59660;DHT22;45534;52.690;6.268;2023-11-19T09:23:51;12.00;99.90
59660;DHT22;45534;52.690;6.268;2023-11-19T09:26:16;12.00;99.90
59660;DHT22;45534;52.690;6.268;2023-11-19T09:28:42;12.00;99.90
59660;DHT22;45534;52.690;6.268;2023-11-19T09:31:17;12.00;99.90
59660;DHT22;45534;52.690;6.268;2023-11-19T09:33:44;12.00;99.90
59660;DHT22;45534;52.690;6.268;2023-11-19T09:36:12;12.00;99.90
59660;DHT22;45534;52.690;6.268;2023-11-19T09:38:40;12.10;99.90
59660;DHT22;45534;52.690;6.268;2023-11-19T09:41:06;12.10;99.90
59660;DHT22;45534;52.690;6.268;2023-11-19T09:43:35;12.10;99.90
59660;DHT22;45534;52.690;6.268;2023-11-19T09:46:14;12.00;99.90
59660;DHT22;45534;52.690;6.268;2023-11-19T09:48:44;12.00;99.90
59660;DHT22;45534;52.690;6.268;2023-11-19T09:51:10;12.00;99.90
59660;DHT22;45534;52.690;6.268;2023-11-19T09:53:37;12.00;99.90
59660;DHT22;45534;52.690;6.268;2023-11-19T09:56:06;12.00;99.90
59660;DHT22;45534;52.690;6.268;2023-11-19T09:58:33;12.00;99.90
59660;DHT22;45534;52.690;6.268;2023-11-19T10:01:00;12.00;99.90
59660;DHT22;45534;52.690;6.268;2023-11-19T10:03:27;12.00;99.90
59660;DHT22;45534;52.690;6.268;2023-11-19T10:05:57;12.00;99.90
59660;DHT22;45534;52.690;6.268;2023-11-19T10:08:23;12.00;99.90
59660;DHT22;45534;52.690;6.268;2023-11-19T10:10:49;11.90;99.90
59660;DHT22;45534;52.690;6.268;2023-11-19T10:13:14;12.00;99.90
59660;DHT22;45534;52.690;6.268;2023-11-19T10:15:41;12.00;99.90
59660;DHT22;45534;52.690;6.268;2023-11-19T10:18:08;11.90;99.90
59660;DHT22;45534;52.690;6.268;2023-11-19T10:20:38;11.90;99.90
59660;DHT22;45534;52.690;6.268;2023-11-19T10:23:06;11.90;99.90
59660;DHT22;45534;52.690;6.268;2023-11-19T10:25:32;11.90;99.90
59660;DHT22;45534;52.690;6.268;2023-11-19T10:27:58;11.90;99.90
59660;DHT22;45534;52.690;6.268;2023-11-19T10:30:29;11.90;99.90
59660;DHT22;45534;52.690;6.268;2023-11-19T10:33:11;12.00;99.90
59660;DHT22;45534;52.690;6.268;2023-11-19T10:35:55;12.00;99.90
59660;DHT22;45534;52.690;6.268;2023-11-19T10:38:25;12.00;99.90
59660;DHT22;45534;52.690;6.268;2023-11-19T10:40:52;12.00;99.90
59660;DHT22;45534;52.690;6.268;2023-11-19T10:43:18;12.00;99.90
59660;DHT22;45534;52.690;6.268;2023-11-19T10:45:45;12.10;99.90
59660;DHT22;45534;52.690;6.268;2023-11-19T10:48:11;12.10;99.90
59660;DHT22;45534;52.690;6.268;2023-11-19T10:50:39;12.10;99.90
59660;DHT22;45534;52.690;6.268;2023-11-19T10:53:06;12.20;99.90
59660;DHT22;45534;52.690;6.268;2023-11-19T10:55:35;12.20;99.90
59660;DHT22;45534;52.690;6.268;2023-11-19T10:58:04;12.20;99.90
59660;DHT22;45534;52.690;6.268;2023-11-19T11:00:51;12.20;99.90
59660;DHT22;45534;52.690;6.268;2023-11-19T11:03:22;12.20;99.90
59660;DHT22;45534;52.690;6.268;2023-11-19T11:05:51;12.10;99.90
59660;DHT22;45534;52.690;6.268;2023-11-19T11:08:18;12.00;99.90
59660;DHT22;45534;52.690;6.268;2023-11-19T11:10:52;11.90;99.90
59660;DHT22;45534;52.690;6.268;2023-11-19T11:13:18;11.80;99.90
59660;DHT22;45534;52.690;6.268;2023-11-19T11:15:45;11.70;99.90
59660;DHT22;45534;52.690;6.268;2023-11-19T11:18:13;11.70;99.90
59660;DHT22;45534;52.690;6.268;2023-11-19T11:20:39;11.60;99.90
59660;DHT22;45534;52.690;6.268;2023-11-19T11:36:30;11.50;99.90
59660;DHT22;45534;52.690;6.268;2023-11-19T11:38:58;11.50;99.90
59660;DHT22;45534;52.690;6.268;2023-11-19T11:41:33;11.50;99.90
59660;DHT22;45534;52.690;6.268;2023-11-19T11:43:59;11.50;99.90
59660;DHT22;45534;52.690;6.268;2023-11-19T11:49:05;11.60;99.90
59660;DHT22;45534;52.690;6.268;2023-11-19T11:57:08;11.80;99.90
59660;DHT22;45534;52.690;6.268;2023-11-19T11:59:43;11.80;99.90
59660;DHT22;45534;52.690;6.268;2023-11-19T12:02:13;11.90;99.90
59660;DHT22;45534;52.690;6.268;2023-11-19T12:04:42;12.10;99.90
59660;DHT22;45534;52.690;6.268;2023-11-19T12:07:12;12.40;99.90
59660;DHT22;45534;52.690;6.268;2023-11-19T12:09:42;12.40;99.90
59660;DHT22;45534;52.690;6.268;2023-11-19T12:17:50;12.50;99.90
59660;DHT22;45534;52.690;6.268;2023-11-19T12:20:21;12.60;99.90
59660;DHT22;45534;52.690;6.268;2023-11-19T12:22:48;12.60;99.90
59660;DHT22;45534;52.690;6.268;2023-11-19T12:25:15;12.50;99.90
59660;DHT22;45534;52.690;6.268;2023-11-19T12:27:51;12.50;99.90
59660;DHT22;45534;52.690;6.268;2023-11-19T12:30:25;12.40;99.90
59660;DHT22;45534;52.690;6.268;2023-11-19T12:32:51;12.40;99.90
59660;DHT22;45534;52.690;6.268;2023-11-19T12:35:19;12.30;99.90
59660;DHT22;45534;52.690;6.268;2023-11-19T12:37:45;12.30;99.90
59660;DHT22;45534;52.690;6.268;2023-11-19T12:40:16;12.20;99.90
59660;DHT22;45534;52.690;6.268;2023-11-19T12:42:46;12.20;99.90
59660;DHT22;45534;52.690;6.268;2023-11-19T12:45:12;12.20;99.90
59660;DHT22;45534;52.690;6.268;2023-11-19T12:47:39;12.20;99.90
59660;DHT22;45534;52.690;6.268;2023-11-19T12:50:08;12.20;99.90
59660;DHT22;45534;52.690;6.268;2023-11-19T12:52:35;12.10;99.90
59660;DHT22;45534;52.690;6.268;2023-11-19T12:55:02;12.10;99.90
59660;DHT22;45534;52.690;6.268;2023-11-19T12:57:41;12.10;99.90
59660;DHT22;45534;52.690;6.268;2023-11-19T13:00:19;12.10;99.90
59660;DHT22;45534;52.690;6.268;2023-11-19T13:02:49;12.20;99.90
59660;DHT22;45534;52.690;6.268;2023-11-19T13:05:30;12.20;99.90
59660;DHT22;45534;52.690;6.268;2023-11-19T13:08:10;12.20;99.90
59660;DHT22;45534;52.690;6.268;2023-11-19T13:10:51;12.20;99.90
59660;DHT22;45534;52.690;6.268;2023-11-19T13:13:19;12.20;99.90
59660;DHT22;45534;52.690;6.268;2023-11-19T13:15:45;12.20;99.90
59660;DHT22;45534;52.690;6.268;2023-11-19T13:18:11;12.20;99.90
59660;DHT22;45534;52.690;6.268;2023-11-19T13:20:38;12.20;99.90
59660;DHT22;45534;52.690;6.268;2023-11-19T13:23:06;12.20;99.90
59660;DHT22;45534;52.690;6.268;2023-11-19T13:25:35;12.10;99.90
59660;DHT22;45534;52.690;6.268;2023-11-19T13:28:01;12.00;99.90
59660;DHT22;45534;52.690;6.268;2023-11-19T13:30:27;11.90;99.90
59660;DHT22;45534;52.690;6.268;2023-11-19T13:32:54;11.80;99.90
59660;DHT22;45534;52.690;6.268;2023-11-19T13:35:21;11.70;99.90
59660;DHT22;45534;52.690;6.268;2023-11-19T13:37:47;11.70;99.90
59660;DHT22;45534;52.690;6.268;2023-11-19T13:40:13;11.70;99.90
59660;DHT22;45534;52.690;6.268;2023-11-19T13:42:44;11.70;99.90
59660;DHT22;45534;52.690;6.268;2023-11-19T13:45:13;11.60;99.90
59660;DHT22;45534;52.690;6.268;2023-11-19T13:47:41;11.60;99.90
59660;DHT22;45534;52.690;6.268;2023-11-19T13:50:11;11.60;99.90
59660;DHT22;45534;52.690;6.268;2023-11-19T13:52:38;11.60;99.90
59660;DHT22;45534;52.690;6.268;2023-11-19T13:55:08;11.60;99.90
59660;DHT22;45534;52.690;6.268;2023-11-19T13:57:38;11.60;99.90
59660;DHT22;45534;52.690;6.268;2023-11-19T14:00:06;11.60;99.90
59660;DHT22;45534;52.690;6.268;2023-11-19T14:02:33;11.60;99.90
59660;DHT22;45534;52.690;6.268;2023-11-19T14:04:59;11.70;99.90
59660;DHT22;45534;52.690;6.268;2023-11-19T14:07:25;11.70;99.90
59660;DHT22;45534;52.690;6.268;2023-11-19T14:09:51;11.70;99.90
59660;DHT22;45534;52.690;6.268;2023-11-19T14:12:17;11.70;99.90
59660;DHT22;45534;52.690;6.268;2023-11-19T14:14:43;11.70;99.90
59660;DHT22;45534;52.690;6.268;2023-11-19T14:17:09;11.70;99.90
59660;DHT22;45534;52.690;6.268;2023-11-19T14:19:36;11.70;99.90
59660;DHT22;45534;52.690;6.268;2023-11-19T14:22:02;11.70;99.90
59660;DHT22;45534;52.690;6.268;2023-11-19T14:24:28;11.60;99.90
59660;DHT22;45534;52.690;6.268;2023-11-19T14:26:54;11.60;99.90
59660;DHT22;45534;52.690;6.268;2023-11-19T14:29:19;11.60;99.90
59660;DHT22;45534;52.690;6.268;2023-11-19T14:31:45;11.60;99.90
59660;DHT22;45534;52.690;6.268;2023-11-19T14:34:10;11.50;99.90
59660;DHT22;45534;52.690;6.268;2023-11-19T14:36:36;11.50;99.90
59660;DHT22;45534;52.690;6.268;2023-11-19T14:39:02;11.40;99.90
59660;DHT22;45534;52.690;6.268;2023-11-19T14:41:29;11.40;99.90
59660;DHT22;45534;52.690;6.268;2023-11-19T14:43:55;11.40;99.90
59660;DHT22;45534;52.690;6.268;2023-11-19T14:46:20;11.40;99.90
59660;DHT22;45534;52.690;6.268;2023-11-19T14:48:46;11.30;99.90
59660;DHT22;45534;52.690;6.268;2023-11-19T14:51:12;11.30;99.90
59660;DHT22;45534;52.690;6.268;2023-11-19T14:53:38;11.30;99.90
59660;DHT22;45534;52.690;6.268;2023-11-19T14:56:04;11.30;99.90
59660;DHT22;45534;52.690;6.268;2023-11-19T14:58:32;11.30;99.90
59660;DHT22;45534;52.690;6.268;2023-11-19T15:00:58;11.30;99.90
59660;DHT22;45534;52.690;6.268;2023-11-19T15:03:23;11.40;99.90
59660;DHT22;45534;52.690;6.268;2023-11-19T15:05:49;11.40;99.90
59660;DHT22;45534;52.690;6.268;2023-11-19T15:08:16;11.40;99.90
59660;DHT22;45534;52.690;6.268;2023-11-19T15:10:42;11.40;99.90
59660;DHT22;45534;52.690;6.268;2023-11-19T15:13:08;11.40;99.90
59660;DHT22;45534;52.690;6.268;2023-11-19T15:15:34;11.40;99.90
59660;DHT22;45534;52.690;6.268;2023-11-19T15:18:00;11.40;99.90
59660;DHT22;45534;52.690;6.268;2023-11-19T15:20:26;11.40;99.90
59660;DHT22;45534;52.690;6.268;2023-11-19T15:22:56;11.30;99.90
59660;DHT22;45534;52.690;6.268;2023-11-19T15:25:21;11.30;99.90
59660;DHT22;45534;52.690;6.268;2023-11-19T15:27:48;11.30;99.90
59660;DHT22;45534;52.690;6.268;2023-11-19T15:30:14;11.30;99.90
59660;DHT22;45534;52.690;6.268;2023-11-19T15:32:44;11.30;99.90
59660;DHT22;45534;52.690;6.268;2023-11-19T15:35:10;11.30;99.90
59660;DHT22;45534;52.690;6.268;2023-11-19T15:37:36;11.30;99.90
59660;DHT22;45534;52.690;6.268;2023-11-19T15:40:06;11.30;99.90
59660;DHT22;45534;52.690;6.268;2023-11-19T15:42:34;11.30;99.90
59660;DHT22;45534;52.690;6.268;2023-11-19T15:45:00;11.30;99.90
59660;DHT22;45534;52.690;6.268;2023-11-19T15:47:25;11.30;99.90
59660;DHT22;45534;52.690;6.268;2023-11-19T15:49:51;11.30;99.90
59660;DHT22;45534;52.690;6.268;2023-11-19T15:52:17;11.30;99.90
59660;DHT22;45534;52.690;6.268;2023-11-19T15:54:42;11.30;99.90
59660;DHT22;45534;52.690;6.268;2023-11-19T15:57:10;11.30;99.90